sensor_id;sensor_type;location;lat;lon;timestamp;P1;durP1;ratioP1;P2;durP2;ratioP2
64738;SDS011;51175;51.186;0.276;2023-03-11T00:00:00;17.15;;;9.68;;
64738;SDS011;51175;51.186;0.276;2023-03-11T00:00:31;19.15;;;10.05;;
64738;SDS011;51175;51.186;0.276;2023-03-11T00:01:03;17.98;;;10.32;;
64738;SDS011;51175;51.186;0.276;2023-03-11T00:01:33;13.40;;;9.93;;
64738;SDS011;51175;51.186;0.276;2023-03-11T00:02:04;16.08;;;9.75;;
64738;SDS011;51175;51.186;0.276;2023-03-11T00:02:34;14.95;;;10.65;;
64738;SDS011;51175;51.186;0.276;2023-03-11T00:03:05;15.70;;;9.75;;
64738;SDS011;51175;51.186;0.276;2023-03-11T00:03:37;15.57;;;9.05;;
64738;SDS011;51175;51.186;0.276;2023-03-11T00:04:08;15.57;;;10.00;;
64738;SDS011;51175;51.186;0.276;2023-03-11T00:04:38;19.50;;;9.80;;
64738;SDS011;51175;51.186;0.276;2023-03-11T00:05:11;15.05;;;9.52;;
64738;SDS011;51175;51.186;0.276;2023-03-11T00:05:45;16.95;;;11.05;;
64738;SDS011;51175;51.186;0.276;2023-03-11T00:06:16;17.05;;;10.48;;
64738;SDS011;51175;51.186;0.276;2023-03-11T00:06:46;15.80;;;10.20;;
64738;SDS011;51175;51.186;0.276;2023-03-11T00:07:17;14.68;;;9.23;;
64738;SDS011;51175;51.186;0.276;2023-03-11T00:07:47;13.23;;;8.65;;
64738;SDS011;51175;51.186;0.276;2023-03-11T00:08:19;18.88;;;9.73;;
64738;SDS011;51175;51.186;0.276;2023-03-11T00:08:51;15.23;;;8.82;;
64738;SDS011;51175;51.186;0.276;2023-03-11T00:09:21;14.00;;;9.73;;
64738;SDS011;51175;51.186;0.276;2023-03-11T00:09:52;15.57;;;10.30;;
64738;SDS011;51175;51.186;0.276;2023-03-11T00:10:26;15.55;;;8.82;;
64738;SDS011;51175;51.186;0.276;2023-03-11T00:10:59;16.40;;;9.18;;
64738;SDS011;51175;51.186;0.276;2023-03-11T00:11:30;18.58;;;10.45;;
64738;SDS011;51175;51.186;0.276;2023-03-11T00:12:01;14.48;;;9.40;;
64738;SDS011;51175;51.186;0.276;2023-03-11T00:12:32;15.57;;;9.85;;
64738;SDS011;51175;51.186;0.276;2023-03-11T00:13:03;13.40;;;9.27;;
64738;SDS011;51175;51.186;0.276;2023-03-11T00:13:34;17.98;;;10.45;;
64738;SDS011;51175;51.186;0.276;2023-03-11T00:14:05;14.45;;;9.38;;
64738;SDS011;51175;51.186;0.276;2023-03-11T00:14:36;10.70;;;7.63;;
64738;SDS011;51175;51.186;0.276;2023-03-11T00:15:06;14.85;;;9.68;;
64738;SDS011;51175;51.186;0.276;2023-03-11T00:15:37;13.38;;;8.95;;
64738;SDS011;51175;51.186;0.276;2023-03-11T00:16:08;14.73;;;8.95;;
64738;SDS011;51175;51.186;0.276;2023-03-11T00:16:39;13.25;;;8.32;;
64738;SDS011;51175;51.186;0.276;2023-03-11T00:17:09;14.35;;;8.55;;
64738;SDS011;51175;51.186;0.276;2023-03-11T00:17:39;13.23;;;9.40;;
64738;SDS011;51175;51.186;0.276;2023-03-11T00:18:10;13.65;;;8.82;;
64738;SDS011;51175;51.186;0.276;2023-03-11T00:18:41;13.98;;;8.20;;
64738;SDS011;51175;51.186;0.276;2023-03-11T00:19:11;16.02;;;8.95;;
64738;SDS011;51175;51.186;0.276;2023-03-11T00:19:41;13.52;;;8.60;;
64738;SDS011;51175;51.186;0.276;2023-03-11T00:20:33;14.95;;;9.10;;
64738;SDS011;51175;51.186;0.276;2023-03-11T00:21:04;15.68;;;8.65;;
64738;SDS011;51175;51.186;0.276;2023-03-11T00:21:34;14.00;;;8.52;;
64738;SDS011;51175;51.186;0.276;2023-03-11T00:22:05;15.25;;;9.18;;
64738;SDS011;51175;51.186;0.276;2023-03-11T00:22:35;17.10;;;8.20;;
64738;SDS011;51175;51.186;0.276;2023-03-11T00:23:06;17.17;;;8.95;;
64738;SDS011;51175;51.186;0.276;2023-03-11T00:23:37;13.68;;;8.02;;
64738;SDS011;51175;51.186;0.276;2023-03-11T00:24:07;12.43;;;8.23;;
64738;SDS011;51175;51.186;0.276;2023-03-11T00:24:38;17.70;;;9.15;;
64738;SDS011;51175;51.186;0.276;2023-03-11T00:25:09;14.70;;;8.52;;
64738;SDS011;51175;51.186;0.276;2023-03-11T00:25:41;14.25;;;8.82;;
64738;SDS011;51175;51.186;0.276;2023-03-11T00:26:13;11.80;;;8.23;;
64738;SDS011;51175;51.186;0.276;2023-03-11T00:26:43;11.98;;;7.32;;
64738;SDS011;51175;51.186;0.276;2023-03-11T00:27:13;11.27;;;7.97;;
64738;SDS011;51175;51.186;0.276;2023-03-11T00:27:44;12.57;;;8.85;;
64738;SDS011;51175;51.186;0.276;2023-03-11T00:28:14;11.00;;;7.32;;
64738;SDS011;51175;51.186;0.276;2023-03-11T00:28:46;12.98;;;7.85;;
64738;SDS011;51175;51.186;0.276;2023-03-11T00:29:18;13.20;;;8.18;;
64738;SDS011;51175;51.186;0.276;2023-03-11T00:29:48;13.45;;;8.40;;
64738;SDS011;51175;51.186;0.276;2023-03-11T00:30:19;13.00;;;7.82;;
64738;SDS011;51175;51.186;0.276;2023-03-11T00:30:50;9.65;;;7.15;;
64738;SDS011;51175;51.186;0.276;2023-03-11T00:31:21;12.52;;;7.68;;
64738;SDS011;51175;51.186;0.276;2023-03-11T00:31:51;13.27;;;7.72;;
64738;SDS011;51175;51.186;0.276;2023-03-11T00:32:22;11.10;;;6.85;;
64738;SDS011;51175;51.186;0.276;2023-03-11T00:32:53;13.77;;;7.25;;
64738;SDS011;51175;51.186;0.276;2023-03-11T00:33:25;12.77;;;8.98;;
64738;SDS011;51175;51.186;0.276;2023-03-11T00:33:55;13.80;;;8.30;;
64738;SDS011;51175;51.186;0.276;2023-03-11T00:34:26;12.82;;;8.05;;
64738;SDS011;51175;51.186;0.276;2023-03-11T00:34:56;12.85;;;7.65;;
64738;SDS011;51175;51.186;0.276;2023-03-11T00:35:28;16.15;;;8.70;;
64738;SDS011;51175;51.186;0.276;2023-03-11T00:36:00;14.27;;;8.43;;
64738;SDS011;51175;51.186;0.276;2023-03-11T00:36:32;9.05;;;6.80;;
64738;SDS011;51175;51.186;0.276;2023-03-11T00:37:02;11.40;;;7.13;;
64738;SDS011;51175;51.186;0.276;2023-03-11T00:37:33;11.75;;;7.35;;
64738;SDS011;51175;51.186;0.276;2023-03-11T00:38:05;11.73;;;8.00;;
64738;SDS011;51175;51.186;0.276;2023-03-11T00:38:37;11.15;;;7.80;;
64738;SDS011;51175;51.186;0.276;2023-03-11T00:39:07;11.98;;;7.22;;
64738;SDS011;51175;51.186;0.276;2023-03-11T00:39:39;11.15;;;7.15;;
64738;SDS011;51175;51.186;0.276;2023-03-11T00:40:13;14.73;;;7.53;;
64738;SDS011;51175;51.186;0.276;2023-03-11T00:40:46;10.98;;;7.38;;
64738;SDS011;51175;51.186;0.276;2023-03-11T00:41:17;11.98;;;7.53;;
64738;SDS011;51175;51.186;0.276;2023-03-11T00:41:48;10.90;;;6.70;;
64738;SDS011;51175;51.186;0.276;2023-03-11T00:42:19;11.48;;;6.85;;
64738;SDS011;51175;51.186;0.276;2023-03-11T00:42:50;14.00;;;7.55;;
64738;SDS011;51175;51.186;0.276;2023-03-11T00:43:20;8.85;;;6.70;;
64738;SDS011;51175;51.186;0.276;2023-03-11T00:43:50;10.75;;;7.43;;
64738;SDS011;51175;51.186;0.276;2023-03-11T00:44:21;13.20;;;7.80;;
64738;SDS011;51175;51.186;0.276;2023-03-11T00:44:52;11.45;;;7.28;;
64738;SDS011;51175;51.186;0.276;2023-03-11T00:45:23;12.25;;;7.15;;
64738;SDS011;51175;51.186;0.276;2023-03-11T00:45:54;12.32;;;7.35;;
64738;SDS011;51175;51.186;0.276;2023-03-11T00:46:25;9.95;;;6.45;;
64738;SDS011;51175;51.186;0.276;2023-03-11T00:46:56;11.10;;;6.65;;
64738;SDS011;51175;51.186;0.276;2023-03-11T00:47:26;10.45;;;6.68;;
64738;SDS011;51175;51.186;0.276;2023-03-11T00:47:56;10.02;;;7.00;;
64738;SDS011;51175;51.186;0.276;2023-03-11T00:48:28;11.40;;;7.15;;
64738;SDS011;51175;51.186;0.276;2023-03-11T00:48:59;12.63;;;7.03;;
64738;SDS011;51175;51.186;0.276;2023-03-11T00:49:29;9.82;;;6.47;;
64738;SDS011;51175;51.186;0.276;2023-03-11T00:49:59;11.40;;;7.32;;
64738;SDS011;51175;51.186;0.276;2023-03-11T00:50:31;11.95;;;7.38;;
64738;SDS011;51175;51.186;0.276;2023-03-11T00:51:03;9.38;;;6.75;;
64738;SDS011;51175;51.186;0.276;2023-03-11T00:51:35;12.15;;;6.65;;
64738;SDS011;51175;51.186;0.276;2023-03-11T00:52:05;11.77;;;7.50;;
64738;SDS011;51175;51.186;0.276;2023-03-11T00:52:36;10.02;;;6.47;;
64738;SDS011;51175;51.186;0.276;2023-03-11T00:53:08;8.82;;;5.70;;
64738;SDS011;51175;51.186;0.276;2023-03-11T00:53:39;9.60;;;6.22;;
64738;SDS011;51175;51.186;0.276;2023-03-11T00:54:10;12.60;;;7.18;;
64738;SDS011;51175;51.186;0.276;2023-03-11T00:54:40;8.10;;;5.90;;
64738;SDS011;51175;51.186;0.276;2023-03-11T00:55:12;9.88;;;7.47;;
64738;SDS011;51175;51.186;0.276;2023-03-11T00:55:47;9.27;;;6.25;;
64738;SDS011;51175;51.186;0.276;2023-03-11T00:56:18;8.23;;;5.88;;
64738;SDS011;51175;51.186;0.276;2023-03-11T00:56:48;10.23;;;6.57;;
64738;SDS011;51175;51.186;0.276;2023-03-11T00:57:18;9.13;;;6.28;;
64738;SDS011;51175;51.186;0.276;2023-03-11T00:57:52;10.30;;;6.28;;
64738;SDS011;51175;51.186;0.276;2023-03-11T00:58:24;10.07;;;6.45;;
64738;SDS011;51175;51.186;0.276;2023-03-11T00:58:57;9.75;;;6.45;;
64738;SDS011;51175;51.186;0.276;2023-03-11T00:59:28;11.50;;;7.07;;
64738;SDS011;51175;51.186;0.276;2023-03-11T00:59:59;10.57;;;6.47;;
64738;SDS011;51175;51.186;0.276;2023-03-11T01:00:30;7.95;;;5.90;;
64738;SDS011;51175;51.186;0.276;2023-03-11T01:01:07;11.88;;;7.07;;
64738;SDS011;51175;51.186;0.276;2023-03-11T01:01:42;9.77;;;6.15;;
64738;SDS011;51175;51.186;0.276;2023-03-11T01:02:13;11.20;;;6.78;;
64738;SDS011;51175;51.186;0.276;2023-03-11T01:02:43;10.25;;;6.10;;
64738;SDS011;51175;51.186;0.276;2023-03-11T01:03:13;8.60;;;5.85;;
64738;SDS011;51175;51.186;0.276;2023-03-11T01:03:44;11.65;;;6.20;;
64738;SDS011;51175;51.186;0.276;2023-03-11T01:04:14;10.60;;;6.40;;
64738;SDS011;51175;51.186;0.276;2023-03-11T01:04:44;12.15;;;6.00;;
64738;SDS011;51175;51.186;0.276;2023-03-11T01:05:16;8.68;;;5.90;;
64738;SDS011;51175;51.186;0.276;2023-03-11T01:05:48;7.38;;;6.05;;
64738;SDS011;51175;51.186;0.276;2023-03-11T01:06:18;12.85;;;6.60;;
64738;SDS011;51175;51.186;0.276;2023-03-11T01:06:49;8.82;;;6.18;;
64738;SDS011;51175;51.186;0.276;2023-03-11T01:07:19;10.07;;;5.95;;
64738;SDS011;51175;51.186;0.276;2023-03-11T01:07:49;8.13;;;5.43;;
64738;SDS011;51175;51.186;0.276;2023-03-11T01:08:20;11.13;;;6.97;;
64738;SDS011;51175;51.186;0.276;2023-03-11T01:08:50;9.43;;;6.78;;
64738;SDS011;51175;51.186;0.276;2023-03-11T01:09:20;8.73;;;5.93;;
64738;SDS011;51175;51.186;0.276;2023-03-11T01:09:51;7.60;;;5.32;;
64738;SDS011;51175;51.186;0.276;2023-03-11T01:10:21;8.85;;;5.72;;
64738;SDS011;51175;51.186;0.276;2023-03-11T01:10:52;12.65;;;7.13;;
64738;SDS011;51175;51.186;0.276;2023-03-11T01:11:22;7.78;;;5.93;;
64738;SDS011;51175;51.186;0.276;2023-03-11T01:11:53;9.75;;;6.20;;
64738;SDS011;51175;51.186;0.276;2023-03-11T01:12:23;7.80;;;5.88;;
64738;SDS011;51175;51.186;0.276;2023-03-11T01:12:54;8.10;;;6.10;;
64738;SDS011;51175;51.186;0.276;2023-03-11T01:13:25;7.82;;;5.78;;
64738;SDS011;51175;51.186;0.276;2023-03-11T01:13:57;8.77;;;5.75;;
64738;SDS011;51175;51.186;0.276;2023-03-11T01:14:27;7.88;;;5.72;;
64738;SDS011;51175;51.186;0.276;2023-03-11T01:14:58;8.25;;;4.97;;
64738;SDS011;51175;51.186;0.276;2023-03-11T01:15:33;9.57;;;6.05;;
64738;SDS011;51175;51.186;0.276;2023-03-11T01:16:05;8.68;;;6.00;;
64738;SDS011;51175;51.186;0.276;2023-03-11T01:16:36;9.88;;;6.20;;
64738;SDS011;51175;51.186;0.276;2023-03-11T01:17:07;10.65;;;6.25;;
64738;SDS011;51175;51.186;0.276;2023-03-11T01:17:37;10.52;;;6.05;;
64738;SDS011;51175;51.186;0.276;2023-03-11T01:18:07;8.65;;;4.80;;
64738;SDS011;51175;51.186;0.276;2023-03-11T01:18:38;8.75;;;6.07;;
64738;SDS011;51175;51.186;0.276;2023-03-11T01:19:08;9.88;;;6.15;;
64738;SDS011;51175;51.186;0.276;2023-03-11T01:19:39;10.68;;;6.38;;
64738;SDS011;51175;51.186;0.276;2023-03-11T01:20:09;10.45;;;5.65;;
64738;SDS011;51175;51.186;0.276;2023-03-11T01:20:41;7.57;;;5.18;;
64738;SDS011;51175;51.186;0.276;2023-03-11T01:21:11;10.90;;;6.63;;
64738;SDS011;51175;51.186;0.276;2023-03-11T01:21:42;8.93;;;6.25;;
64738;SDS011;51175;51.186;0.276;2023-03-11T01:22:12;11.73;;;6.05;;
64738;SDS011;51175;51.186;0.276;2023-03-11T01:22:42;9.23;;;5.38;;
64738;SDS011;51175;51.186;0.276;2023-03-11T01:23:17;9.77;;;6.38;;
64738;SDS011;51175;51.186;0.276;2023-03-11T01:23:49;9.18;;;5.80;;
64738;SDS011;51175;51.186;0.276;2023-03-11T01:24:20;8.65;;;5.57;;
64738;SDS011;51175;51.186;0.276;2023-03-11T01:24:50;8.77;;;5.60;;
64738;SDS011;51175;51.186;0.276;2023-03-11T01:25:21;9.80;;;6.78;;
64738;SDS011;51175;51.186;0.276;2023-03-11T01:25:52;10.43;;;5.95;;
64738;SDS011;51175;51.186;0.276;2023-03-11T01:26:23;7.70;;;5.60;;
64738;SDS011;51175;51.186;0.276;2023-03-11T01:26:53;8.77;;;5.82;;
64738;SDS011;51175;51.186;0.276;2023-03-11T01:27:23;8.05;;;5.47;;
64738;SDS011;51175;51.186;0.276;2023-03-11T01:27:54;8.60;;;5.55;;
64738;SDS011;51175;51.186;0.276;2023-03-11T01:28:25;7.78;;;5.55;;
64738;SDS011;51175;51.186;0.276;2023-03-11T01:28:55;9.18;;;5.32;;
64738;SDS011;51175;51.186;0.276;2023-03-11T01:29:25;8.23;;;5.90;;
64738;SDS011;51175;51.186;0.276;2023-03-11T01:29:56;10.38;;;5.60;;
64738;SDS011;51175;51.186;0.276;2023-03-11T01:30:26;9.85;;;5.72;;
64738;SDS011;51175;51.186;0.276;2023-03-11T01:30:57;12.13;;;5.95;;
64738;SDS011;51175;51.186;0.276;2023-03-11T01:31:28;9.30;;;5.47;;
64738;SDS011;51175;51.186;0.276;2023-03-11T01:31:58;8.95;;;5.45;;
64738;SDS011;51175;51.186;0.276;2023-03-11T01:32:29;9.02;;;5.88;;
64738;SDS011;51175;51.186;0.276;2023-03-11T01:32:59;10.38;;;5.78;;
64738;SDS011;51175;51.186;0.276;2023-03-11T01:33:30;9.05;;;5.28;;
64738;SDS011;51175;51.186;0.276;2023-03-11T01:34:00;9.77;;;6.00;;
64738;SDS011;51175;51.186;0.276;2023-03-11T01:34:30;9.55;;;5.32;;
64738;SDS011;51175;51.186;0.276;2023-03-11T01:35:02;7.68;;;5.47;;
64738;SDS011;51175;51.186;0.276;2023-03-11T01:35:32;8.02;;;5.63;;
64738;SDS011;51175;51.186;0.276;2023-03-11T01:36:04;7.95;;;5.13;;
64738;SDS011;51175;51.186;0.276;2023-03-11T01:36:35;9.85;;;5.50;;
64738;SDS011;51175;51.186;0.276;2023-03-11T01:37:05;9.80;;;6.18;;
64738;SDS011;51175;51.186;0.276;2023-03-11T01:37:35;11.45;;;5.97;;
64738;SDS011;51175;51.186;0.276;2023-03-11T01:38:06;8.55;;;5.40;;
64738;SDS011;51175;51.186;0.276;2023-03-11T01:38:36;9.38;;;5.88;;
64738;SDS011;51175;51.186;0.276;2023-03-11T01:39:06;10.38;;;5.85;;
64738;SDS011;51175;51.186;0.276;2023-03-11T01:39:37;7.95;;;5.00;;
64738;SDS011;51175;51.186;0.276;2023-03-11T01:40:10;9.55;;;5.60;;
64738;SDS011;51175;51.186;0.276;2023-03-11T01:40:47;8.65;;;5.53;;
64738;SDS011;51175;51.186;0.276;2023-03-11T01:41:19;9.90;;;5.40;;
64738;SDS011;51175;51.186;0.276;2023-03-11T01:41:49;11.00;;;5.05;;
64738;SDS011;51175;51.186;0.276;2023-03-11T01:42:21;8.20;;;5.68;;
64738;SDS011;51175;51.186;0.276;2023-03-11T01:42:52;10.38;;;4.97;;
64738;SDS011;51175;51.186;0.276;2023-03-11T01:44:12;8.15;;;5.63;;
64738;SDS011;51175;51.186;0.276;2023-03-11T01:44:42;7.45;;;5.35;;
64738;SDS011;51175;51.186;0.276;2023-03-11T01:45:23;9.90;;;6.28;;
64738;SDS011;51175;51.186;0.276;2023-03-11T01:48:02;7.68;;;5.72;;
64738;SDS011;51175;51.186;0.276;2023-03-11T01:48:32;8.45;;;5.07;;
64738;SDS011;51175;51.186;0.276;2023-03-11T01:49:03;9.65;;;5.95;;
64738;SDS011;51175;51.186;0.276;2023-03-11T01:49:34;11.43;;;6.32;;
64738;SDS011;51175;51.186;0.276;2023-03-11T01:50:11;8.32;;;5.53;;
64738;SDS011;51175;51.186;0.276;2023-03-11T01:50:44;10.65;;;6.10;;
64738;SDS011;51175;51.186;0.276;2023-03-11T01:51:21;9.57;;;5.75;;
64738;SDS011;51175;51.186;0.276;2023-03-11T01:51:57;9.85;;;7.05;;
64738;SDS011;51175;51.186;0.276;2023-03-11T01:52:32;9.77;;;6.18;;
64738;SDS011;51175;51.186;0.276;2023-03-11T01:53:03;8.18;;;4.90;;
64738;SDS011;51175;51.186;0.276;2023-03-11T01:53:34;8.23;;;5.13;;
64738;SDS011;51175;51.186;0.276;2023-03-11T01:54:14;8.35;;;5.93;;
64738;SDS011;51175;51.186;0.276;2023-03-11T01:54:47;10.10;;;5.43;;
64738;SDS011;51175;51.186;0.276;2023-03-11T01:55:18;7.90;;;5.07;;
64738;SDS011;51175;51.186;0.276;2023-03-11T01:55:48;10.05;;;6.65;;
64738;SDS011;51175;51.186;0.276;2023-03-11T01:56:19;8.48;;;5.65;;
64738;SDS011;51175;51.186;0.276;2023-03-11T01:56:50;10.00;;;5.72;;
64738;SDS011;51175;51.186;0.276;2023-03-11T01:57:22;10.07;;;6.35;;
64738;SDS011;51175;51.186;0.276;2023-03-11T01:57:52;9.65;;;5.68;;
64738;SDS011;51175;51.186;0.276;2023-03-11T01:58:24;8.68;;;5.40;;
64738;SDS011;51175;51.186;0.276;2023-03-11T01:58:59;10.13;;;5.85;;
64738;SDS011;51175;51.186;0.276;2023-03-11T01:59:31;7.40;;;5.47;;
64738;SDS011;51175;51.186;0.276;2023-03-11T02:00:07;9.52;;;5.85;;
64738;SDS011;51175;51.186;0.276;2023-03-11T02:00:39;9.73;;;6.43;;
64738;SDS011;51175;51.186;0.276;2023-03-11T02:01:11;10.20;;;6.22;;
64738;SDS011;51175;51.186;0.276;2023-03-11T02:01:47;8.02;;;5.72;;
64738;SDS011;51175;51.186;0.276;2023-03-11T02:03:31;10.85;;;6.20;;
64738;SDS011;51175;51.186;0.276;2023-03-11T02:04:06;8.75;;;6.55;;
64738;SDS011;51175;51.186;0.276;2023-03-11T02:04:37;9.38;;;5.70;;
64738;SDS011;51175;51.186;0.276;2023-03-11T02:05:09;9.63;;;5.50;;
64738;SDS011;51175;51.186;0.276;2023-03-11T02:05:40;7.60;;;5.70;;
64738;SDS011;51175;51.186;0.276;2023-03-11T02:06:13;9.30;;;5.25;;
64738;SDS011;51175;51.186;0.276;2023-03-11T02:06:46;8.63;;;5.55;;
64738;SDS011;51175;51.186;0.276;2023-03-11T02:07:17;7.57;;;5.50;;
64738;SDS011;51175;51.186;0.276;2023-03-11T02:07:48;8.10;;;5.93;;
64738;SDS011;51175;51.186;0.276;2023-03-11T02:08:20;7.68;;;5.13;;
64738;SDS011;51175;51.186;0.276;2023-03-11T02:08:50;11.02;;;5.57;;
64738;SDS011;51175;51.186;0.276;2023-03-11T02:09:21;8.13;;;6.25;;
64738;SDS011;51175;51.186;0.276;2023-03-11T02:09:53;10.20;;;6.03;;
64738;SDS011;51175;51.186;0.276;2023-03-11T02:10:23;7.90;;;5.60;;
64738;SDS011;51175;51.186;0.276;2023-03-11T02:10:54;11.25;;;5.85;;
64738;SDS011;51175;51.186;0.276;2023-03-11T02:11:26;10.35;;;5.65;;
64738;SDS011;51175;51.186;0.276;2023-03-11T02:11:59;8.50;;;5.60;;
64738;SDS011;51175;51.186;0.276;2023-03-11T02:12:30;7.80;;;5.72;;
64738;SDS011;51175;51.186;0.276;2023-03-11T02:13:04;9.13;;;5.78;;
64738;SDS011;51175;51.186;0.276;2023-03-11T02:13:35;8.82;;;5.35;;
64738;SDS011;51175;51.186;0.276;2023-03-11T02:14:06;10.85;;;6.15;;
64738;SDS011;51175;51.186;0.276;2023-03-11T02:14:38;8.85;;;5.53;;
64738;SDS011;51175;51.186;0.276;2023-03-11T02:15:12;6.45;;;4.88;;
64738;SDS011;51175;51.186;0.276;2023-03-11T02:15:43;8.40;;;5.93;;
64738;SDS011;51175;51.186;0.276;2023-03-11T02:16:13;8.88;;;5.60;;
64738;SDS011;51175;51.186;0.276;2023-03-11T02:16:45;9.93;;;6.40;;
64738;SDS011;51175;51.186;0.276;2023-03-11T02:17:15;9.65;;;5.78;;
64738;SDS011;51175;51.186;0.276;2023-03-11T02:17:46;8.70;;;5.15;;
64738;SDS011;51175;51.186;0.276;2023-03-11T02:18:16;11.05;;;6.13;;
64738;SDS011;51175;51.186;0.276;2023-03-11T02:18:49;9.68;;;6.07;;
64738;SDS011;51175;51.186;0.276;2023-03-11T02:21:25;6.30;;;5.32;;
64738;SDS011;51175;51.186;0.276;2023-03-11T02:21:58;9.93;;;6.20;;
64738;SDS011;51175;51.186;0.276;2023-03-11T02:22:28;8.45;;;5.25;;
64738;SDS011;51175;51.186;0.276;2023-03-11T02:23:02;8.95;;;5.63;;
64738;SDS011;51175;51.186;0.276;2023-03-11T02:23:35;8.00;;;6.07;;
64738;SDS011;51175;51.186;0.276;2023-03-11T02:24:22;8.98;;;6.05;;
64738;SDS011;51175;51.186;0.276;2023-03-11T02:27:26;7.57;;;5.15;;
64738;SDS011;51175;51.186;0.276;2023-03-11T02:27:58;8.93;;;6.20;;
64738;SDS011;51175;51.186;0.276;2023-03-11T02:28:30;9.20;;;6.47;;
64738;SDS011;51175;51.186;0.276;2023-03-11T02:29:04;9.60;;;5.10;;
64738;SDS011;51175;51.186;0.276;2023-03-11T02:29:37;7.97;;;5.00;;
64738;SDS011;51175;51.186;0.276;2023-03-11T02:30:09;9.23;;;5.43;;
64738;SDS011;51175;51.186;0.276;2023-03-11T02:30:42;7.60;;;4.55;;
64738;SDS011;51175;51.186;0.276;2023-03-11T02:31:13;10.88;;;5.60;;
64738;SDS011;51175;51.186;0.276;2023-03-11T02:31:44;8.43;;;5.40;;
64738;SDS011;51175;51.186;0.276;2023-03-11T02:32:15;9.15;;;5.97;;
64738;SDS011;51175;51.186;0.276;2023-03-11T02:32:47;10.55;;;5.30;;
64738;SDS011;51175;51.186;0.276;2023-03-11T02:33:18;7.95;;;5.30;;
64738;SDS011;51175;51.186;0.276;2023-03-11T02:33:50;8.88;;;5.80;;
64738;SDS011;51175;51.186;0.276;2023-03-11T02:34:27;8.13;;;5.47;;
64738;SDS011;51175;51.186;0.276;2023-03-11T02:35:00;9.50;;;6.28;;
64738;SDS011;51175;51.186;0.276;2023-03-11T02:35:30;10.50;;;5.50;;
64738;SDS011;51175;51.186;0.276;2023-03-11T02:36:01;7.80;;;5.15;;
64738;SDS011;51175;51.186;0.276;2023-03-11T02:36:39;14.15;;;6.55;;
64738;SDS011;51175;51.186;0.276;2023-03-11T02:37:12;7.72;;;5.93;;
64738;SDS011;51175;51.186;0.276;2023-03-11T02:37:47;10.98;;;6.15;;
64738;SDS011;51175;51.186;0.276;2023-03-11T02:38:18;6.93;;;5.43;;
64738;SDS011;51175;51.186;0.276;2023-03-11T02:38:49;7.22;;;5.35;;
64738;SDS011;51175;51.186;0.276;2023-03-11T02:39:29;8.63;;;5.45;;
64738;SDS011;51175;51.186;0.276;2023-03-11T02:41:05;9.23;;;5.53;;
64738;SDS011;51175;51.186;0.276;2023-03-11T02:41:36;11.43;;;5.57;;
64738;SDS011;51175;51.186;0.276;2023-03-11T02:42:22;7.97;;;5.50;;
64738;SDS011;51175;51.186;0.276;2023-03-11T02:42:56;7.95;;;5.97;;
64738;SDS011;51175;51.186;0.276;2023-03-11T02:43:39;11.35;;;5.88;;
64738;SDS011;51175;51.186;0.276;2023-03-11T02:44:13;7.65;;;5.30;;
64738;SDS011;51175;51.186;0.276;2023-03-11T02:44:46;9.23;;;5.85;;
64738;SDS011;51175;51.186;0.276;2023-03-11T02:45:24;11.13;;;6.50;;
64738;SDS011;51175;51.186;0.276;2023-03-11T02:45:56;12.65;;;6.28;;
64738;SDS011;51175;51.186;0.276;2023-03-11T02:46:26;7.28;;;5.18;;
64738;SDS011;51175;51.186;0.276;2023-03-11T02:46:57;10.20;;;5.90;;
64738;SDS011;51175;51.186;0.276;2023-03-11T02:47:28;11.80;;;5.47;;
64738;SDS011;51175;51.186;0.276;2023-03-11T02:47:59;10.13;;;5.78;;
64738;SDS011;51175;51.186;0.276;2023-03-11T02:48:30;8.18;;;5.55;;
64738;SDS011;51175;51.186;0.276;2023-03-11T02:49:00;8.88;;;5.93;;
64738;SDS011;51175;51.186;0.276;2023-03-11T02:49:31;10.75;;;6.35;;
64738;SDS011;51175;51.186;0.276;2023-03-11T02:50:02;7.65;;;5.38;;
64738;SDS011;51175;51.186;0.276;2023-03-11T02:50:33;8.07;;;5.75;;
64738;SDS011;51175;51.186;0.276;2023-03-11T02:51:06;9.15;;;5.53;;
64738;SDS011;51175;51.186;0.276;2023-03-11T02:51:36;9.35;;;5.45;;
64738;SDS011;51175;51.186;0.276;2023-03-11T02:52:06;8.10;;;6.43;;
64738;SDS011;51175;51.186;0.276;2023-03-11T02:52:37;8.00;;;5.80;;
64738;SDS011;51175;51.186;0.276;2023-03-11T02:53:08;10.82;;;6.25;;
64738;SDS011;51175;51.186;0.276;2023-03-11T02:53:40;8.45;;;5.60;;
64738;SDS011;51175;51.186;0.276;2023-03-11T02:54:16;10.75;;;5.43;;
64738;SDS011;51175;51.186;0.276;2023-03-11T02:54:46;8.95;;;5.30;;
64738;SDS011;51175;51.186;0.276;2023-03-11T02:55:17;9.45;;;5.25;;
64738;SDS011;51175;51.186;0.276;2023-03-11T02:55:49;9.93;;;6.13;;
64738;SDS011;51175;51.186;0.276;2023-03-11T02:56:19;8.40;;;5.40;;
64738;SDS011;51175;51.186;0.276;2023-03-11T02:56:50;8.30;;;5.38;;
64738;SDS011;51175;51.186;0.276;2023-03-11T02:57:20;8.80;;;5.82;;
64738;SDS011;51175;51.186;0.276;2023-03-11T02:57:51;9.35;;;6.38;;
64738;SDS011;51175;51.186;0.276;2023-03-11T02:58:21;8.60;;;5.95;;
64738;SDS011;51175;51.186;0.276;2023-03-11T02:58:51;9.63;;;5.88;;
64738;SDS011;51175;51.186;0.276;2023-03-11T02:59:22;7.40;;;5.43;;
64738;SDS011;51175;51.186;0.276;2023-03-11T02:59:52;9.07;;;6.30;;
64738;SDS011;51175;51.186;0.276;2023-03-11T03:00:23;9.63;;;6.10;;
64738;SDS011;51175;51.186;0.276;2023-03-11T03:00:53;10.40;;;6.43;;
64738;SDS011;51175;51.186;0.276;2023-03-11T03:01:24;8.82;;;6.45;;
64738;SDS011;51175;51.186;0.276;2023-03-11T03:01:54;9.82;;;6.60;;
64738;SDS011;51175;51.186;0.276;2023-03-11T03:02:25;9.35;;;5.82;;
64738;SDS011;51175;51.186;0.276;2023-03-11T03:02:55;7.75;;;5.10;;
64738;SDS011;51175;51.186;0.276;2023-03-11T03:03:25;8.80;;;5.65;;
64738;SDS011;51175;51.186;0.276;2023-03-11T03:03:56;10.80;;;5.57;;
64738;SDS011;51175;51.186;0.276;2023-03-11T03:04:26;11.30;;;5.80;;
64738;SDS011;51175;51.186;0.276;2023-03-11T03:04:56;10.05;;;5.93;;
64738;SDS011;51175;51.186;0.276;2023-03-11T03:05:27;8.80;;;5.53;;
64738;SDS011;51175;51.186;0.276;2023-03-11T03:05:57;6.75;;;5.90;;
64738;SDS011;51175;51.186;0.276;2023-03-11T03:06:27;9.63;;;5.85;;
64738;SDS011;51175;51.186;0.276;2023-03-11T03:06:58;8.75;;;6.05;;
64738;SDS011;51175;51.186;0.276;2023-03-11T03:07:28;9.50;;;6.30;;
64738;SDS011;51175;51.186;0.276;2023-03-11T03:07:59;8.60;;;6.32;;
64738;SDS011;51175;51.186;0.276;2023-03-11T03:08:29;8.18;;;6.05;;
64738;SDS011;51175;51.186;0.276;2023-03-11T03:08:59;7.15;;;5.65;;
64738;SDS011;51175;51.186;0.276;2023-03-11T03:09:30;10.45;;;5.32;;
64738;SDS011;51175;51.186;0.276;2023-03-11T03:10:01;10.27;;;5.78;;
64738;SDS011;51175;51.186;0.276;2023-03-11T03:10:32;9.48;;;5.95;;
64738;SDS011;51175;51.186;0.276;2023-03-11T03:11:03;10.13;;;6.00;;
64738;SDS011;51175;51.186;0.276;2023-03-11T03:11:34;9.68;;;6.78;;
64738;SDS011;51175;51.186;0.276;2023-03-11T03:12:04;9.25;;;5.90;;
64738;SDS011;51175;51.186;0.276;2023-03-11T03:12:35;10.63;;;6.25;;
64738;SDS011;51175;51.186;0.276;2023-03-11T03:13:05;7.75;;;5.55;;
64738;SDS011;51175;51.186;0.276;2023-03-11T03:13:36;10.43;;;5.93;;
64738;SDS011;51175;51.186;0.276;2023-03-11T03:14:06;8.35;;;6.38;;
64738;SDS011;51175;51.186;0.276;2023-03-11T03:14:36;11.07;;;6.13;;
64738;SDS011;51175;51.186;0.276;2023-03-11T03:15:07;8.50;;;5.55;;
64738;SDS011;51175;51.186;0.276;2023-03-11T03:15:38;9.95;;;6.03;;
64738;SDS011;51175;51.186;0.276;2023-03-11T03:16:09;9.98;;;5.45;;
64738;SDS011;51175;51.186;0.276;2023-03-11T03:16:39;9.85;;;6.65;;
64738;SDS011;51175;51.186;0.276;2023-03-11T03:17:09;11.52;;;5.55;;
64738;SDS011;51175;51.186;0.276;2023-03-11T03:17:40;10.25;;;5.55;;
64738;SDS011;51175;51.186;0.276;2023-03-11T03:18:10;8.35;;;5.63;;